createdAt,value
2023-04-16T00:01:41.127Z,45.58
2023-04-16T00:04:08.622Z,45.81
2023-04-16T00:06:35.530Z,45.51
2023-04-16T00:09:02.666Z,45.86
2023-04-16T00:11:29.414Z,45.72
2023-04-16T00:13:56.446Z,45.57
2023-04-16T00:16:23.431Z,45.95
2023-04-16T00:18:50.686Z,45.86
2023-04-16T00:21:17.443Z,45.87
2023-04-16T00:23:44.570Z,45.71
2023-04-16T00:26:11.402Z,45.54
2023-04-16T00:28:38.561Z,45.66
2023-04-16T00:31:05.403Z,45.96
2023-04-16T00:33:32.619Z,45.70
2023-04-16T00:35:59.392Z,45.41
2023-04-16T00:38:30.295Z,45.78
2023-04-16T00:40:59.738Z,45.89
2023-04-16T00:43:26.999Z,45.85
2023-04-16T00:45:54.167Z,45.94
2023-04-16T00:48:21.573Z,45.78
2023-04-16T00:50:48.652Z,45.96
2023-04-16T00:53:16.238Z,46.06
2023-04-16T00:55:43.815Z,45.95
2023-04-16T00:58:10.870Z,46.03
2023-04-16T01:00:37.649Z,45.98
2023-04-16T01:03:04.869Z,45.70
2023-04-16T01:05:31.788Z,45.96
2023-04-16T01:08:00.824Z,46.01
2023-04-16T01:10:27.676Z,45.82
2023-04-16T01:12:54.727Z,46.22
2023-04-16T01:15:21.567Z,46.08
2023-04-16T01:17:48.864Z,45.94
2023-04-16T01:20:15.703Z,45.86
2023-04-16T01:22:42.838Z,46.01
2023-04-16T01:25:14.117Z,45.85
2023-04-16T01:27:41.294Z,46.06
2023-04-16T01:30:08.423Z,46.11
2023-04-16T01:32:35.554Z,46.25
2023-04-16T01:35:02.392Z,46.04
2023-04-16T01:37:29.515Z,46.33
2023-04-16T01:39:56.417Z,46.30
2023-04-16T01:42:23.496Z,46.14
2023-04-16T01:44:50.214Z,46.37
2023-04-16T01:47:17.241Z,46.23
2023-04-16T01:49:45.694Z,45.94
2023-04-16T01:52:12.778Z,46.06
2023-04-16T01:54:39.533Z,46.39
2023-04-16T01:57:06.585Z,46.13
2023-04-16T01:59:33.351Z,46.29
2023-04-16T02:02:14.523Z,45.99
2023-04-16T02:04:42.322Z,45.97
2023-04-16T02:07:09.716Z,46.36
2023-04-16T02:09:37.346Z,45.88
2023-04-16T02:12:04.585Z,45.97
2023-04-16T02:14:31.899Z,46.02
2023-04-16T02:16:59.212Z,46.19
2023-04-16T02:19:26.036Z,45.97
2023-04-16T02:21:53.421Z,46.06
2023-04-16T02:24:20.585Z,46.11
2023-04-16T02:26:48.058Z,46.16
2023-04-16T02:29:16.465Z,46.13
2023-04-16T02:31:44.476Z,45.79
2023-04-16T02:34:11.448Z,46.22
2023-04-16T02:36:38.744Z,46.22
2023-04-16T02:39:05.525Z,46.28
2023-04-16T02:41:32.559Z,46.28
2023-04-16T02:43:59.342Z,46.39
2023-04-16T02:46:26.470Z,46.21
2023-04-16T02:48:53.340Z,46.23
2023-04-16T02:51:20.399Z,46.28
2023-04-16T02:53:47.298Z,46.44
2023-04-16T02:56:14.424Z,46.50
2023-04-16T02:58:41.249Z,46.33
2023-04-16T03:01:08.294Z,46.37
2023-04-16T03:03:35.087Z,46.25
2023-04-16T03:06:02.108Z,46.32
2023-04-16T03:08:28.876Z,46.46
2023-04-16T03:10:55.924Z,46.21
2023-04-16T03:13:22.705Z,46.32
2023-04-16T03:15:50.149Z,46.18
2023-04-16T03:18:16.998Z,46.21
2023-04-16T03:20:44.118Z,46.24
2023-04-16T03:23:10.913Z,46.21
2023-04-16T03:25:40.540Z,46.47
2023-04-16T03:28:07.370Z,46.23
2023-04-16T03:30:34.386Z,46.40
2023-04-16T03:33:01.311Z,46.45
2023-04-16T03:35:28.414Z,46.29
2023-04-16T03:37:55.208Z,46.31
2023-04-16T03:40:22.325Z,46.45
2023-04-16T03:42:49.099Z,46.47
2023-04-16T03:45:16.605Z,46.32
2023-04-16T03:47:43.401Z,46.60
2023-04-16T03:50:11.665Z,46.39
2023-04-16T03:52:38.467Z,46.41
2023-04-16T03:55:06.195Z,46.58
2023-04-16T03:57:32.938Z,46.55
2023-04-16T03:59:59.983Z,46.79
2023-04-16T04:02:27.331Z,46.46
2023-04-16T04:04:54.705Z,46.56
2023-04-16T04:07:21.558Z,46.66
2023-04-16T04:09:48.635Z,46.53
2023-04-16T04:12:15.357Z,46.51
2023-04-16T04:14:42.505Z,46.61
2023-04-16T04:17:09.327Z,46.58
2023-04-16T04:19:38.886Z,46.50
2023-04-16T04:22:08.984Z,46.62
2023-04-16T04:24:36.432Z,46.35
2023-04-16T04:27:03.756Z,46.35
2023-04-16T04:29:30.971Z,46.36
2023-04-16T04:31:59.042Z,46.46
2023-04-16T04:34:26.320Z,46.37
2023-04-16T04:36:53.069Z,46.55
2023-04-16T04:39:21.673Z,46.70
2023-04-16T04:41:48.551Z,46.55
2023-04-16T04:44:15.754Z,46.63
2023-04-16T04:46:42.509Z,46.61
2023-04-16T04:49:09.780Z,46.79
2023-04-16T04:51:36.715Z,46.49
2023-04-16T04:54:03.864Z,46.56
2023-04-16T04:56:30.649Z,46.50
2023-04-16T04:58:58.214Z,46.58
2023-04-16T05:01:25.269Z,46.62
2023-04-16T05:03:52.345Z,46.63
2023-04-16T05:06:19.128Z,46.42
2023-04-16T05:08:46.166Z,46.44
2023-04-16T05:11:12.950Z,46.42
2023-04-16T05:13:40.101Z,46.49
2023-04-16T05:16:07.526Z,46.45
2023-04-16T05:18:34.636Z,46.37
2023-04-16T05:21:01.421Z,46.45
2023-04-16T05:23:28.545Z,46.43
2023-04-16T05:25:55.430Z,46.41
2023-04-16T05:28:22.529Z,46.73
2023-04-16T05:30:49.304Z,46.28
2023-04-16T05:33:16.429Z,46.57
2023-04-16T05:35:43.194Z,46.37
2023-04-16T05:38:10.465Z,46.67
2023-04-16T05:40:37.279Z,46.92
2023-04-16T05:43:04.380Z,47.11
2023-04-16T05:45:33.456Z,46.84
2023-04-16T05:48:00.624Z,46.72
2023-04-16T05:50:27.433Z,46.96
2023-04-16T05:52:54.558Z,46.52
2023-04-16T05:55:21.330Z,46.31
2023-04-16T05:57:48.394Z,46.23
2023-04-16T06:00:15.441Z,45.73
2023-04-16T06:02:42.730Z,46.23
2023-04-16T06:05:09.755Z,46.16
2023-04-16T06:07:36.819Z,45.93
2023-04-16T06:10:03.632Z,45.98
2023-04-16T06:12:31.132Z,45.86
2023-04-16T06:14:57.955Z,45.89
2023-04-16T06:17:25.253Z,45.76
2023-04-16T06:19:52.074Z,45.66
2023-04-16T06:22:19.171Z,45.63
2023-04-16T06:24:45.942Z,45.63
2023-04-16T06:27:13.021Z,45.58
2023-04-16T06:29:41.707Z,45.80
2023-04-16T06:32:09.158Z,45.49
2023-04-16T06:34:37.695Z,45.88
2023-04-16T06:37:04.791Z,45.69
2023-04-16T06:39:31.533Z,45.70
2023-04-16T06:41:58.662Z,45.56
2023-04-16T06:44:25.425Z,45.72
2023-04-16T06:46:52.703Z,45.27
2023-04-16T06:49:19.574Z,45.50
2023-04-16T06:51:46.673Z,45.47
2023-04-16T06:54:13.423Z,45.70
2023-04-16T06:56:40.567Z,45.42
2023-04-16T06:59:07.595Z,45.19
2023-04-16T07:01:34.885Z,45.47
2023-04-16T07:04:02.003Z,45.40
2023-04-16T07:06:29.433Z,45.43
2023-04-16T07:08:56.179Z,45.52
2023-04-16T07:11:25.866Z,45.46
2023-04-16T07:13:53.899Z,45.62
2023-04-16T07:16:21.274Z,45.28
2023-04-16T07:18:48.060Z,45.12
2023-04-16T07:21:15.145Z,45.07
2023-04-16T07:23:41.957Z,45.28
2023-04-16T07:26:09.007Z,45.28
2023-04-16T07:28:35.840Z,45.00
2023-04-16T07:31:03.057Z,45.02
2023-04-16T07:33:29.865Z,45.38
2023-04-16T07:35:56.965Z,45.37
2023-04-16T07:38:23.675Z,45.18
2023-04-16T07:40:51.425Z,45.19
2023-04-16T07:43:18.178Z,45.25
2023-04-16T07:45:45.303Z,45.23
2023-04-16T07:48:12.076Z,45.07
2023-04-16T07:50:39.201Z,45.01
2023-04-16T07:53:07.689Z,45.45
2023-04-16T07:55:34.848Z,45.28
2023-04-16T07:58:02.864Z,45.47
2023-04-16T08:00:29.932Z,44.94
2023-04-16T08:02:56.845Z,45.16
2023-04-16T08:05:24.162Z,45.42
2023-04-16T08:07:51.013Z,45.50
2023-04-16T08:10:18.409Z,45.11
2023-04-16T08:12:45.273Z,44.68
2023-04-16T08:15:12.362Z,44.90
2023-04-16T08:17:39.158Z,45.29
2023-04-16T08:20:06.922Z,45.12
2023-04-16T08:22:33.923Z,45.22
2023-04-16T08:25:01.092Z,45.27
2023-04-16T08:27:27.865Z,44.93
2023-04-16T08:29:55.017Z,44.93
2023-04-16T08:32:21.856Z,45.41
2023-04-16T08:34:48.955Z,45.46
2023-04-16T08:37:15.753Z,45.14
2023-04-16T08:39:42.912Z,44.71
2023-04-16T08:42:14.063Z,44.82
2023-04-16T08:44:44.049Z,45.28
2023-04-16T08:47:10.784Z,45.40
2023-04-16T08:49:37.885Z,45.15
2023-04-16T08:52:05.824Z,44.95
2023-04-16T08:54:44.163Z,45.10
2023-04-16T08:57:12.014Z,45.28
2023-04-16T08:59:39.241Z,44.90
2023-04-16T09:02:06.652Z,45.02
2023-04-16T09:04:33.911Z,45.29
2023-04-16T09:07:01.375Z,45.13
2023-04-16T09:09:28.567Z,45.06
2023-04-16T09:11:56.249Z,44.75
2023-04-16T09:14:23.456Z,44.92
2023-04-16T09:16:50.861Z,44.57
2023-04-16T09:19:18.020Z,44.44
2023-04-16T09:21:46.890Z,44.61
2023-04-16T09:24:14.099Z,44.55
2023-04-16T09:26:44.194Z,44.72
2023-04-16T09:29:11.588Z,44.96
2023-04-16T09:31:38.689Z,44.47
2023-04-16T09:34:07.769Z,44.49
2023-04-16T09:36:34.852Z,44.05
2023-04-16T09:39:02.002Z,44.42
2023-04-16T09:41:30.071Z,44.14
2023-04-16T09:43:59.274Z,44.32
2023-04-16T09:46:35.605Z,42.97
2023-04-16T09:49:18.677Z,44.11
2023-04-16T09:51:46.917Z,45.79
2023-04-16T09:54:14.113Z,45.49
2023-04-16T09:56:45.675Z,45.19
2023-04-16T09:59:22.186Z,45.07
2023-04-16T10:01:49.847Z,44.64
2023-04-16T10:04:17.238Z,44.37
2023-04-16T10:06:44.648Z,44.27
2023-04-16T10:09:12.192Z,44.76
2023-04-16T10:11:39.275Z,44.28
2023-04-16T10:14:06.411Z,44.42
2023-04-16T10:16:33.379Z,44.17
2023-04-16T10:19:00.513Z,43.95
2023-04-16T10:21:33.827Z,44.07
2023-04-16T10:24:01.598Z,43.97
2023-04-16T10:26:29.922Z,43.99
2023-04-16T10:28:57.119Z,43.37
2023-04-16T10:31:23.927Z,43.33
2023-04-16T10:33:52.374Z,43.31
2023-04-16T10:36:26.669Z,43.24
2023-04-16T10:38:59.205Z,43.41
2023-04-16T10:41:26.806Z,43.32
2023-04-16T10:43:54.079Z,43.13
2023-04-16T10:46:30.365Z,42.86
2023-04-16T10:49:01.152Z,42.21
2023-04-16T10:51:33.196Z,42.07
2023-04-16T10:54:11.223Z,41.68
2023-04-16T10:56:38.179Z,41.51
2023-04-16T10:59:06.136Z,42.17
2023-04-16T11:01:43.320Z,41.90
2023-04-16T11:04:19.926Z,41.84
2023-04-16T11:07:14.490Z,42.16
2023-04-16T11:09:57.137Z,42.20
2023-04-16T11:12:33.653Z,41.64
2023-04-16T11:15:07.964Z,41.76
2023-04-16T11:17:41.486Z,41.83
2023-04-16T11:20:21.349Z,41.38
2023-04-16T11:22:49.356Z,41.29
2023-04-16T11:25:29.994Z,41.80
2023-04-16T11:27:58.849Z,41.98
2023-04-16T11:30:36.513Z,42.46
2023-04-16T11:33:04.235Z,42.30
2023-04-16T11:35:31.530Z,42.01
2023-04-16T11:37:58.468Z,41.84
2023-04-16T11:40:26.486Z,42.44
2023-04-16T11:42:53.297Z,42.55
2023-04-16T11:45:20.406Z,42.27
2023-04-16T11:47:50.337Z,42.22
2023-04-16T11:50:27.805Z,42.21
2023-04-16T11:52:55.871Z,42.55
2023-04-16T11:55:23.302Z,42.93
2023-04-16T11:57:51.082Z,42.49
2023-04-16T12:00:19.320Z,42.30
2023-04-16T12:02:53.332Z,41.98
2023-04-16T12:05:38.985Z,41.76
2023-04-16T12:08:07.420Z,41.68
2023-04-16T12:10:35.875Z,41.33
2023-04-16T12:13:16.521Z,41.25
2023-04-16T12:15:50.854Z,41.40
2023-04-16T12:18:18.188Z,40.83
2023-04-16T12:20:45.592Z,41.30
2023-04-16T12:23:29.681Z,40.73
2023-04-16T12:25:59.687Z,39.95
2023-04-16T12:28:34.094Z,40.40
2023-04-16T12:31:02.054Z,40.60
2023-04-16T12:33:29.119Z,40.51
2023-04-16T12:35:56.300Z,40.03
2023-04-16T12:38:24.661Z,40.40
2023-04-16T12:40:52.222Z,39.56
2023-04-16T12:43:19.905Z,40.21
2023-04-16T12:45:47.092Z,40.15
2023-04-16T12:48:13.990Z,39.55
2023-04-16T12:50:44.158Z,39.86
2023-04-16T12:53:11.029Z,39.74
2023-04-16T12:55:38.191Z,39.60
2023-04-16T12:58:04.972Z,40.03
2023-04-16T13:00:32.234Z,39.42
2023-04-16T13:02:59.153Z,39.09
2023-04-16T13:05:26.713Z,39.17
2023-04-16T13:07:54.063Z,38.99
2023-04-16T13:10:22.038Z,38.46
2023-04-16T13:12:49.206Z,38.82
2023-04-16T13:15:16.460Z,39.53
2023-04-16T13:17:43.262Z,39.49
2023-04-16T13:20:10.780Z,38.69
2023-04-16T13:22:37.624Z,38.60
2023-04-16T13:25:05.398Z,38.78
2023-04-16T13:27:32.709Z,39.04
2023-04-16T13:29:59.776Z,39.30
2023-04-16T13:32:26.661Z,38.83
2023-04-16T13:34:53.765Z,39.04
2023-04-16T13:37:20.583Z,39.28
2023-04-16T13:39:47.683Z,39.76
2023-04-16T13:42:14.433Z,39.50
2023-04-16T13:44:41.506Z,39.79
2023-04-16T13:47:08.666Z,40.18
2023-04-16T13:49:36.326Z,40.26
2023-04-16T13:52:03.558Z,39.62
2023-04-16T13:54:30.850Z,39.31
2023-04-16T13:56:57.652Z,39.16
2023-04-16T13:59:24.885Z,39.19
2023-04-16T14:01:51.726Z,39.58
2023-04-16T14:04:18.952Z,39.05
2023-04-16T14:06:45.769Z,38.76
2023-04-16T14:09:13.026Z,38.54
2023-04-16T14:11:40.098Z,38.74
2023-04-16T14:14:07.243Z,38.36
2023-04-16T14:16:34.660Z,38.53
2023-04-16T14:19:01.940Z,38.00
2023-04-16T14:21:28.848Z,37.79
2023-04-16T14:23:55.999Z,38.24
2023-04-16T14:26:23.025Z,37.89
2023-04-16T14:28:51.032Z,37.96
2023-04-16T14:31:18.331Z,38.00
2023-04-16T14:33:46.032Z,38.14
2023-04-16T14:36:12.844Z,37.88
2023-04-16T14:38:40.848Z,37.79
2023-04-16T14:41:07.687Z,38.19
2023-04-16T14:43:35.784Z,38.37
2023-04-16T14:46:05.058Z,38.70
2023-04-16T14:48:32.339Z,38.49
2023-04-16T14:50:59.103Z,38.73
2023-04-16T14:53:26.369Z,39.27
2023-04-16T14:55:53.635Z,39.21
2023-04-16T14:58:21.862Z,39.25
2023-04-16T15:00:48.683Z,38.88
2023-04-16T15:03:16.255Z,38.76
2023-04-16T15:05:50.804Z,38.68
2023-04-16T15:08:18.006Z,38.48
2023-04-16T15:10:45.844Z,39.11
2023-04-16T15:13:12.970Z,39.35
2023-04-16T15:15:39.764Z,38.83
2023-04-16T15:18:06.937Z,38.86
2023-04-16T15:20:33.743Z,39.44
2023-04-16T15:23:00.891Z,38.69
2023-04-16T15:25:27.698Z,38.79
2023-04-16T15:27:54.815Z,38.31
2023-04-16T15:30:21.585Z,39.18
2023-04-16T15:32:48.765Z,38.96
2023-04-16T15:35:15.599Z,38.95
2023-04-16T15:37:42.671Z,39.46
2023-04-16T15:40:09.679Z,38.84
2023-04-16T15:42:36.888Z,39.26
2023-04-16T15:45:03.842Z,39.17
2023-04-16T15:47:31.035Z,38.84
2023-04-16T15:49:57.843Z,38.78
2023-04-16T15:52:24.903Z,38.91
2023-04-16T15:54:51.699Z,38.46
2023-04-16T15:57:18.917Z,39.19
2023-04-16T15:59:55.845Z,38.34
2023-04-16T16:02:33.852Z,38.45
2023-04-16T16:05:01.013Z,39.15
2023-04-16T16:07:28.065Z,38.78
2023-04-16T16:09:56.308Z,38.97
2023-04-16T16:12:23.507Z,38.57
2023-04-16T16:14:50.324Z,38.62
2023-04-16T16:17:18.419Z,39.05
2023-04-16T16:19:46.470Z,39.35
2023-04-16T16:22:14.024Z,38.78
2023-04-16T16:24:40.784Z,38.77
2023-04-16T16:27:07.943Z,39.29
2023-04-16T16:29:34.807Z,39.15
2023-04-16T16:32:01.984Z,39.19
2023-04-16T16:34:28.833Z,39.03
2023-04-16T16:36:56.186Z,39.41
2023-04-16T16:39:24.611Z,39.51
2023-04-16T16:41:54.982Z,39.19
2023-04-16T16:44:22.018Z,39.74
2023-04-16T16:46:49.423Z,39.19
2023-04-16T16:49:16.713Z,39.68
2023-04-16T16:51:47.475Z,39.85
2023-04-16T16:54:14.656Z,39.65
2023-04-16T16:56:42.036Z,39.17
2023-04-16T16:59:09.139Z,38.56
2023-04-16T17:01:36.509Z,39.53
2023-04-16T17:04:04.256Z,39.50
2023-04-16T17:06:32.038Z,39.59
2023-04-16T17:08:58.871Z,39.89
2023-04-16T17:11:27.238Z,39.82
2023-04-16T17:13:54.060Z,39.95
2023-04-16T17:16:21.201Z,40.43
2023-04-16T17:18:48.053Z,39.99
2023-04-16T17:21:16.568Z,40.03
2023-04-16T17:23:43.637Z,40.33
2023-04-16T17:26:10.922Z,39.86
2023-04-16T17:28:37.762Z,40.70
2023-04-16T17:31:06.944Z,40.90
2023-04-16T17:33:33.810Z,40.54
2023-04-16T17:36:00.895Z,40.07
2023-04-16T17:38:27.705Z,40.75
2023-04-16T17:40:56.857Z,40.79
2023-04-16T17:43:24.237Z,41.30
2023-04-16T17:45:51.404Z,41.06
2023-04-16T17:48:18.198Z,41.16
2023-04-16T17:50:45.421Z,41.15
2023-04-16T17:53:12.454Z,41.24
2023-04-16T17:55:39.583Z,41.19
2023-04-16T17:58:06.349Z,41.50
2023-04-16T18:00:33.480Z,41.28
2023-04-16T18:03:00.614Z,41.50
2023-04-16T18:05:27.861Z,41.60
2023-04-16T18:07:55.688Z,41.53
2023-04-16T18:10:22.935Z,41.60
2023-04-16T18:12:49.777Z,41.69
2023-04-16T18:15:16.964Z,41.74
2023-04-16T18:17:43.785Z,41.94
2023-04-16T18:20:12.668Z,41.96
2023-04-16T18:22:39.482Z,42.20
2023-04-16T18:25:07.148Z,41.89
2023-04-16T18:27:34.337Z,42.32
2023-04-16T18:30:01.438Z,42.18
2023-04-16T18:32:31.154Z,42.04
2023-04-16T18:34:58.494Z,42.61
2023-04-16T18:37:25.299Z,42.55
2023-04-16T18:39:52.423Z,42.21
2023-04-16T18:42:19.183Z,42.70
2023-04-16T18:44:54.070Z,42.59
2023-04-16T18:47:20.943Z,42.55
2023-04-16T18:49:48.163Z,42.69
2023-04-16T18:52:15.007Z,42.52
2023-04-16T18:54:42.169Z,42.87
2023-04-16T18:57:09.065Z,42.52
2023-04-16T18:59:36.223Z,42.38
2023-04-16T19:02:04.043Z,42.39
2023-04-16T19:04:31.574Z,42.44
2023-04-16T19:06:58.545Z,42.42
2023-04-16T19:09:27.156Z,42.62
2023-04-16T19:11:54.069Z,42.46
2023-04-16T19:14:21.328Z,42.61
2023-04-16T19:16:48.182Z,42.54
2023-04-16T19:19:15.548Z,43.07
2023-04-16T19:21:42.425Z,42.63
2023-04-16T19:24:09.591Z,42.48
2023-04-16T19:26:36.440Z,42.84
2023-04-16T19:29:03.745Z,42.57
2023-04-16T19:31:30.556Z,43.11
2023-04-16T19:33:57.762Z,43.05
2023-04-16T19:36:24.853Z,43.20
2023-04-16T19:38:51.985Z,42.92
2023-04-16T19:41:18.772Z,43.18
2023-04-16T19:43:45.865Z,42.61
2023-04-16T19:46:13.000Z,42.59
2023-04-16T19:48:40.196Z,43.05
2023-04-16T19:51:07.007Z,43.20
2023-04-16T19:53:34.725Z,43.15
2023-04-16T19:56:01.624Z,42.90
2023-04-16T19:58:28.793Z,42.75
2023-04-16T20:00:56.444Z,42.97
2023-04-16T20:03:23.604Z,43.11
2023-04-16T20:05:50.510Z,43.18
2023-04-16T20:08:17.923Z,42.84
2023-04-16T20:10:45.323Z,42.85
2023-04-16T20:13:13.728Z,43.01
2023-04-16T20:15:40.555Z,43.26
2023-04-16T20:18:08.808Z,42.91
2023-04-16T20:20:37.177Z,43.06
2023-04-16T20:23:04.277Z,42.86
2023-04-16T20:25:31.078Z,43.25
2023-04-16T20:27:58.176Z,43.26
2023-04-16T20:30:29.350Z,43.18
2023-04-16T20:32:56.790Z,43.23
2023-04-16T20:35:23.560Z,43.14
2023-04-16T20:37:50.654Z,43.02
2023-04-16T20:40:18.076Z,43.20
2023-04-16T20:42:50.890Z,43.08
2023-04-16T20:45:18.517Z,43.05
2023-04-16T20:47:45.642Z,42.94
2023-04-16T20:50:13.811Z,43.47
2023-04-16T20:52:42.363Z,43.25
2023-04-16T20:55:09.452Z,42.90
2023-04-16T20:57:36.520Z,43.27
2023-04-16T21:00:05.850Z,42.95
2023-04-16T21:02:33.181Z,43.18
2023-04-16T21:05:00.187Z,43.37
2023-04-16T21:07:27.483Z,43.19
2023-04-16T21:09:54.360Z,43.15
2023-04-16T21:12:21.707Z,43.11
2023-04-16T21:14:48.500Z,43.58
2023-04-16T21:17:15.788Z,43.05
2023-04-16T21:19:42.669Z,43.53
2023-04-16T21:22:09.826Z,43.41
2023-04-16T21:24:36.624Z,43.01
2023-04-16T21:27:04.167Z,43.53
2023-04-16T21:29:31.304Z,43.45
2023-04-16T21:31:58.582Z,43.51
2023-04-16T21:34:25.533Z,43.34
2023-04-16T21:36:52.851Z,43.30
2023-04-16T21:39:21.700Z,43.52
2023-04-16T21:41:48.794Z,43.67
2023-04-16T21:44:15.728Z,43.20
2023-04-16T21:46:42.886Z,43.21
2023-04-16T21:49:10.024Z,43.49
2023-04-16T21:51:40.046Z,43.43
2023-04-16T21:54:07.406Z,43.23
2023-04-16T21:56:34.488Z,43.47
2023-04-16T21:59:01.270Z,43.57
2023-04-16T22:01:28.612Z,43.38
2023-04-16T22:03:55.723Z,43.56
2023-04-16T22:06:23.167Z,43.53
2023-04-16T22:08:50.233Z,43.44
2023-04-16T22:11:17.424Z,43.39
2023-04-16T22:13:46.274Z,43.37
2023-04-16T22:16:13.451Z,43.75
2023-04-16T22:18:41.099Z,43.30
2023-04-16T22:21:08.313Z,43.43
2023-04-16T22:23:35.073Z,43.61
2023-04-16T22:26:02.804Z,43.73
2023-04-16T22:28:29.718Z,43.67
2023-04-16T22:30:57.051Z,43.47
2023-04-16T22:33:23.801Z,43.67
2023-04-16T22:35:50.884Z,43.43
2023-04-16T22:38:17.792Z,43.26
2023-04-16T22:40:47.875Z,43.46
2023-04-16T22:43:14.731Z,43.54
2023-04-16T22:45:43.118Z,43.35
2023-04-16T22:48:09.991Z,43.78
2023-04-16T22:50:37.132Z,43.66
2023-04-16T22:53:03.875Z,43.49
2023-04-16T22:55:31.043Z,43.19
2023-04-16T22:57:57.837Z,43.54
2023-04-16T23:00:25.038Z,43.25
2023-04-16T23:05:36.357Z,43.65
2023-04-16T23:08:03.138Z,43.79
2023-04-16T23:10:30.236Z,43.55
2023-04-16T23:12:56.976Z,43.65
2023-04-16T23:15:24.093Z,43.56
2023-04-16T23:17:50.937Z,43.53
2023-04-16T23:20:18.114Z,43.75
2023-04-16T23:22:44.876Z,43.66
2023-04-16T23:25:11.960Z,43.75
2023-04-16T23:27:38.896Z,43.77
2023-04-16T23:30:06.816Z,43.93
2023-04-16T23:32:36.718Z,43.65
2023-04-16T23:35:04.021Z,43.92
2023-04-16T23:37:30.787Z,44.09
2023-04-16T23:39:57.801Z,43.98
2023-04-16T23:42:24.546Z,43.66
2023-04-16T23:44:51.609Z,44.02
2023-04-16T23:47:18.349Z,44.12
2023-04-16T23:49:45.608Z,44.27
2023-04-16T23:52:12.383Z,43.97
2023-04-16T23:54:39.435Z,43.97
2023-04-16T23:57:06.253Z,44.29
2023-04-16T23:59:33.288Z,44.46
